Time;durP1;ratioP1;P1;durP2;ratioP2;P2;SDS_P1;SDS_P2;PMS_P1;PMS_P2;Temp;Humidity;BMP_temperature;BMP_pressure;BME280_temperature;BME280_humidity;BME280_pressure;Samples;Min_cycle;Max_cycle;Signal;HPM_P1;HPM_P2
2022/03/29 00:02:06;;;;;;;2.15;1.98;;;11.30;99.90;;;;;;5043886;28;20273;-65
2022/03/29 00:04:32;;;;;;;1.92;1.70;;;11.20;99.90;;;;;;5039840;28;20240;-66
2022/03/29 00:06:59;;;;;;;2.00;1.90;;;11.20;99.90;;;;;;5032324;28;20267;-65
2022/03/29 00:09:28;;;;;;;1.67;1.58;;;11.20;99.90;;;;;;5032890;28;20315;-65
2022/03/29 00:11:54;;;;;;;1.92;1.73;;;11.10;99.90;;;;;;5031997;28;20204;-66
2022/03/29 00:14:21;;;;;;;1.90;1.80;;;11.10;99.90;;;;;;5031638;28;20201;-65
2022/03/29 00:16:48;;;;;;;1.58;1.50;;;11.10;99.90;;;;;;5032567;28;20207;-64
2022/03/29 00:19:15;;;;;;;1.88;1.77;;;11.10;99.90;;;;;;5031724;28;20252;-65
2022/03/29 00:21:42;;;;;;;1.77;1.65;;;11.10;99.90;;;;;;5032500;28;20204;-66
2022/03/29 00:24:09;;;;;;;2.10;2.00;;;11.00;99.90;;;;;;5037165;28;20232;-65
2022/03/29 00:26:37;;;;;;;2.00;1.90;;;11.00;99.90;;;;;;5052266;28;20319;-64
2022/03/29 00:29:04;;;;;;;1.98;1.88;;;11.00;99.90;;;;;;5042483;28;20236;-64
2022/03/29 00:31:31;;;;;;;2.13;2.03;;;10.90;99.90;;;;;;5035248;28;20292;-65
2022/03/29 00:33:58;;;;;;;1.80;1.70;;;11.00;99.90;;;;;;5038095;28;20209;-65
2022/03/29 00:36:26;;;;;;;2.00;1.90;;;10.90;99.90;;;;;;5031932;28;20291;-66
2022/03/29 00:38:54;;;;;;;1.52;1.42;;;10.80;99.90;;;;;;5031161;28;20228;-67
2022/03/29 00:41:21;;;;;;;1.70;1.60;;;10.70;99.90;;;;;;5032558;28;20208;-67
2022/03/29 00:43:49;;;;;;;1.93;1.83;;;10.70;99.90;;;;;;5028465;28;20211;-66
2022/03/29 00:46:16;;;;;;;2.00;1.90;;;10.80;99.90;;;;;;5033403;28;20656;-67
2022/03/29 00:48:43;;;;;;;1.77;1.67;;;10.80;99.90;;;;;;5048154;28;20244;-67
2022/03/29 00:51:10;;;;;;;1.50;1.40;;;10.80;99.90;;;;;;5031587;28;20228;-67
2022/03/29 00:53:38;;;;;;;1.80;1.70;;;10.70;99.90;;;;;;5031280;28;20211;-67
2022/03/29 00:56:05;;;;;;;1.60;1.50;;;10.70;99.90;;;;;;5033433;28;20193;-66
2022/03/29 00:58:34;;;;;;;1.50;1.50;;;10.70;99.90;;;;;;5033086;28;20205;-64
2022/03/29 01:01:03;;;;;;;1.80;1.70;;;10.80;99.90;;;;;;5029797;28;20224;-67
2022/03/29 01:03:31;;;;;;;1.80;1.70;;;10.80;99.90;;;;;;5031966;28;20583;-66
2022/03/29 01:05:58;;;;;;;1.90;1.80;;;10.80;99.90;;;;;;5031240;28;20204;-66
2022/03/29 01:08:25;;;;;;;1.90;1.80;;;10.70;99.90;;;;;;5028575;28;20325;-67
2022/03/29 01:10:53;;;;;;;1.80;1.70;;;10.70;99.90;;;;;;5041100;22;20292;-64
2022/03/29 01:13:20;;;;;;;1.70;1.60;;;10.70;99.90;;;;;;5009479;28;20206;-63
2022/03/29 01:15:47;;;;;;;2.17;1.70;;;10.60;99.90;;;;;;5013041;28;20252;-63
2022/03/29 01:18:18;;;;;;;1.60;1.50;;;10.60;99.90;;;;;;5013146;28;20613;-65
2022/03/29 01:20:49;;;;;;;1.80;1.70;;;10.60;99.90;;;;;;5010818;28;20245;-65
2022/03/29 01:23:17;;;;;;;1.60;1.50;;;10.60;99.90;;;;;;5003843;28;20232;-67
2022/03/29 01:25:45;;;;;;;1.90;1.80;;;10.60;99.90;;;;;;5013546;28;20236;-64
2022/03/29 01:28:15;;;;;;;1.80;1.70;;;10.60;99.90;;;;;;5013329;28;20648;-63
2022/03/29 01:30:42;;;;;;;2.00;1.90;;;10.60;99.90;;;;;;5012257;28;20249;-63
2022/03/29 01:33:10;;;;;;;1.85;1.75;;;10.60;99.90;;;;;;5012535;28;20291;-63
2022/03/29 01:35:38;;;;;;;2.10;1.83;;;10.70;99.90;;;;;;5012930;28;20295;-64
2022/03/29 01:38:05;;;;;;;1.80;1.70;;;10.60;99.90;;;;;;5011125;28;20317;-64
2022/03/29 01:40:33;;;;;;;1.90;1.80;;;10.60;99.90;;;;;;5009237;28;20283;-64
2022/03/29 01:43:02;;;;;;;1.83;1.73;;;10.80;99.90;;;;;;5011266;28;20252;-64
2022/03/29 01:45:31;;;;;;;1.90;1.80;;;10.60;99.90;;;;;;5007662;28;20205;-64
2022/03/29 01:47:58;;;;;;;1.80;1.70;;;10.60;99.90;;;;;;5011230;28;20778;-64
2022/03/29 01:50:26;;;;;;;1.90;1.80;;;10.50;99.90;;;;;;5009938;28;20307;-64
2022/03/29 01:52:53;;;;;;;1.88;1.77;;;10.60;99.90;;;;;;5011698;28;20667;-63
2022/03/29 01:55:21;;;;;;;1.95;1.85;;;10.60;99.90;;;;;;5013711;28;20209;-63
2022/03/29 01:57:51;;;;;;;1.77;1.67;;;10.60;99.90;;;;;;5004569;28;20276;-64
2022/03/29 02:00:34;;;;;;;1.80;1.70;;;10.60;99.90;;;;;;5012549;28;20316;-62
2022/03/29 02:03:05;;;;;;;1.90;1.80;;;10.60;99.90;;;;;;5015854;28;20205;-63
2022/03/29 02:05:32;;;;;;;1.90;1.80;;;10.60;99.90;;;;;;5027995;28;20235;-65
2022/03/29 02:08:00;;;;;;;3.38;1.83;;;10.50;99.90;;;;;;5030555;28;20213;-64
2022/03/29 02:10:28;;;;;;;1.65;1.60;;;10.50;99.90;;;;;;5033624;28;20244;-64
2022/03/29 02:12:56;;;;;;;1.80;1.70;;;10.50;99.90;;;;;;5031889;28;20237;-64
2022/03/29 02:15:23;;;;;;;1.92;1.83;;;10.50;99.90;;;;;;5030017;28;20229;-64
2022/03/29 02:17:50;;;;;;;1.80;1.70;;;10.50;99.90;;;;;;5026941;28;20225;-65
2022/03/29 02:20:18;;;;;;;1.92;1.83;;;10.50;99.90;;;;;;5027237;28;20641;-64
2022/03/29 02:22:45;;;;;;;1.73;1.63;;;10.40;99.90;;;;;;5026384;28;20209;-64
2022/03/29 02:25:13;;;;;;;1.80;1.70;;;10.30;99.90;;;;;;5011502;28;20312;-65
2022/03/29 02:27:41;;;;;;;1.90;1.80;;;10.40;99.90;;;;;;5012423;28;20876;-64
2022/03/29 02:30:12;;;;;;;1.80;1.70;;;10.30;99.90;;;;;;5013972;28;20336;-64
2022/03/29 02:32:39;;;;;;;1.88;1.77;;;10.30;99.90;;;;;;5014501;28;20292;-62
2022/03/29 02:35:07;;;;;;;1.80;1.70;;;10.30;99.90;;;;;;5012449;28;20824;-63
2022/03/29 02:37:34;;;;;;;1.90;1.80;;;10.30;99.90;;;;;;5013178;28;20229;-64
2022/03/29 02:40:03;;;;;;;1.90;1.80;;;10.30;99.90;;;;;;5012554;28;20319;-63
2022/03/29 02:42:30;;;;;;;1.73;1.63;;;10.40;99.90;;;;;;5024032;28;20193;-65
2022/03/29 02:44:57;;;;;;;1.85;1.75;;;10.40;99.90;;;;;;5015000;28;20241;-64
2022/03/29 02:47:26;;;;;;;1.80;1.70;;;10.40;99.90;;;;;;5012563;28;20578;-66
2022/03/29 02:49:53;;;;;;;1.70;1.60;;;10.40;99.90;;;;;;5014022;28;20337;-65
2022/03/29 02:52:20;;;;;;;2.10;1.80;;;10.40;99.90;;;;;;5017339;28;20210;-63
2022/03/29 02:54:48;;;;;;;1.90;1.80;;;10.40;99.90;;;;;;5022479;28;20211;-64
2022/03/29 02:57:15;;;;;;;1.70;1.60;;;10.40;99.90;;;;;;5018212;28;20632;-65
2022/03/29 02:59:42;;;;;;;1.80;1.70;;;10.40;99.90;;;;;;5016036;28;20611;-65
2022/03/29 03:02:09;;;;;;;1.88;1.77;;;10.40;99.90;;;;;;5016810;28;20638;-65
2022/03/29 03:04:37;;;;;;;1.70;1.60;;;10.40;99.90;;;;;;5014466;28;20206;-63
2022/03/29 03:07:04;;;;;;;1.92;1.77;;;10.30;99.90;;;;;;5015074;28;20292;-63
2022/03/29 03:09:31;;;;;;;1.85;1.75;;;10.30;99.90;;;;;;5014785;28;20320;-64
2022/03/29 03:11:58;;;;;;;1.88;1.77;;;10.30;99.90;;;;;;5013210;28;20244;-65
2022/03/29 03:14:25;;;;;;;2.33;2.13;;;10.20;99.90;;;;;;5013716;28;20241;-64
2022/03/29 03:16:52;;;;;;;2.22;2.13;;;10.20;99.90;;;;;;5013278;28;20255;-65
2022/03/29 03:19:19;;;;;;;1.88;1.77;;;10.20;99.90;;;;;;5014065;28;20197;-64
2022/03/29 03:21:47;;;;;;;1.80;1.70;;;10.20;99.90;;;;;;5014355;28;20236;-63
2022/03/29 03:24:14;;;;;;;1.80;1.70;;;10.20;99.90;;;;;;5013549;28;20647;-64
2022/03/29 03:26:41;;;;;;;1.73;1.63;;;10.30;99.90;;;;;;5013328;28;20255;-63
2022/03/29 03:29:08;;;;;;;1.67;1.58;;;10.40;99.90;;;;;;5015298;28;20642;-65
2022/03/29 03:31:35;;;;;;;1.73;1.63;;;10.30;99.90;;;;;;5014648;28;20268;-65
2022/03/29 03:34:02;;;;;;;1.73;1.60;;;10.30;99.90;;;;;;5014880;28;20239;-66
2022/03/29 03:36:29;;;;;;;1.70;1.60;;;10.30;99.90;;;;;;5019344;28;20257;-64
2022/03/29 03:38:57;;;;;;;1.80;1.70;;;10.30;99.90;;;;;;5019284;28;20783;-65
2022/03/29 03:41:24;;;;;;;2.35;1.80;;;10.40;99.90;;;;;;5019048;28;20229;-65
2022/03/29 03:43:51;;;;;;;1.85;1.75;;;10.40;99.90;;;;;;5014057;28;20232;-66
2022/03/29 03:46:18;;;;;;;1.80;1.70;;;10.40;99.90;;;;;;5012322;28;20224;-64
2022/03/29 03:48:46;;;;;;;1.88;1.77;;;10.40;99.90;;;;;;5012823;28;20279;-65
2022/03/29 03:51:13;;;;;;;1.80;1.70;;;10.40;99.90;;;;;;5014214;28;20304;-65
2022/03/29 03:53:40;;;;;;;1.65;1.55;;;10.40;99.90;;;;;;5012567;28;20205;-64
2022/03/29 03:56:08;;;;;;;1.52;1.52;;;10.60;99.90;;;;;;5013373;28;20231;-64
2022/03/29 03:58:35;;;;;;;1.80;1.70;;;10.40;99.90;;;;;;5027750;28;20232;-64
2022/03/29 04:01:02;;;;;;;1.80;1.70;;;10.40;99.90;;;;;;5031948;28;20252;-64
2022/03/29 04:03:29;;;;;;;1.80;1.70;;;10.30;99.90;;;;;;5031927;28;20208;-64
2022/03/29 04:05:56;;;;;;;1.90;1.80;;;10.30;99.90;;;;;;5031917;28;20220;-64
2022/03/29 04:08:23;;;;;;;1.90;1.65;;;10.30;99.90;;;;;;5031637;28;20614;-64
2022/03/29 04:10:49;;;;;;;1.70;1.60;;;10.30;99.90;;;;;;5030505;28;20334;-64
2022/03/29 04:13:19;;;;;;;2.00;1.80;;;10.30;99.90;;;;;;5019908;28;20722;-65
2022/03/29 04:15:47;;;;;;;1.77;1.67;;;10.20;99.90;;;;;;5018625;28;20593;-64
2022/03/29 04:18:14;;;;;;;1.70;1.60;;;10.20;99.90;;;;;;5014754;28;20223;-64
2022/03/29 04:20:41;;;;;;;1.75;1.65;;;10.20;99.90;;;;;;5014375;28;20236;-63
2022/03/29 04:23:08;;;;;;;1.50;1.50;;;10.10;99.90;;;;;;5011781;28;20232;-63
2022/03/29 04:25:35;;;;;;;1.52;1.50;;;10.10;99.90;;;;;;5011095;28;20288;-63
2022/03/29 04:28:02;;;;;;;1.60;1.50;;;10.10;99.90;;;;;;5012277;28;20671;-63
2022/03/29 04:30:31;;;;;;;1.77;1.67;;;10.10;99.90;;;;;;5015606;28;20256;-64
2022/03/29 04:32:58;;;;;;;1.60;1.50;;;10.00;99.90;;;;;;5020570;28;20237;-63
2022/03/29 04:35:25;;;;;;;1.45;1.40;;;9.90;99.90;;;;;;5022861;28;20221;-63
2022/03/29 04:37:53;;;;;;;1.52;1.52;;;9.90;99.90;;;;;;5016656;28;20241;-63
2022/03/29 04:40:20;;;;;;;1.92;1.70;;;9.90;99.90;;;;;;5015555;28;20252;-62
2022/03/29 04:42:49;;;;;;;1.50;1.45;;;9.90;99.90;;;;;;5014395;28;20209;-63
2022/03/29 04:45:17;;;;;;;1.80;1.70;;;9.90;99.90;;;;;;5012202;28;20734;-65
2022/03/29 04:47:47;;;;;;;1.70;1.60;;;9.90;99.90;;;;;;5012813;28;20288;-63
2022/03/29 04:50:16;;;;;;;1.70;1.60;;;10.00;99.90;;;;;;5007155;28;20311;-63
2022/03/29 04:52:46;;;;;;;1.70;1.60;;;10.00;99.90;;;;;;5012198;28;20310;-64
2022/03/29 04:55:14;;;;;;;1.48;1.48;;;10.00;99.90;;;;;;5013134;28;20661;-63
2022/03/29 04:57:42;;;;;;;1.60;1.50;;;10.00;99.90;;;;;;5011989;28;20630;-64
2022/03/29 05:00:10;;;;;;;1.70;1.60;;;10.00;99.90;;;;;;5010373;28;20975;-63
2022/03/29 05:02:37;;;;;;;1.60;1.50;;;9.90;99.90;;;;;;5012313;28;20664;-63
2022/03/29 05:05:07;;;;;;;1.67;1.60;;;9.90;99.90;;;;;;5009388;28;20208;-67
2022/03/29 05:07:34;;;;;;;1.60;1.50;;;9.90;99.90;;;;;;5011293;28;20243;-65
2022/03/29 05:10:01;;;;;;;1.60;1.50;;;9.90;99.90;;;;;;5010557;28;20316;-64
2022/03/29 05:12:40;;;;;;;1.80;1.70;;;10.00;99.90;;;;;;5018382;28;20255;-66
2022/03/29 05:15:08;;;;;;;1.90;1.80;;;9.90;99.90;;;;;;5019500;28;20311;-64
2022/03/29 05:17:35;;;;;;;2.20;1.60;;;10.00;99.90;;;;;;5021731;28;20217;-64
2022/03/29 05:20:03;;;;;;;2.35;1.60;;;10.00;99.90;;;;;;5020063;28;20250;-65
2022/03/29 05:22:31;;;;;;;1.90;1.80;;;10.10;99.90;;;;;;5019960;28;20213;-64
2022/03/29 05:24:58;;;;;;;1.60;1.50;;;10.10;99.90;;;;;;5012427;28;20233;-63
2022/03/29 05:27:25;;;;;;;1.80;1.70;;;10.10;99.90;;;;;;5010037;28;20240;-64
2022/03/29 05:29:52;;;;;;;1.80;1.70;;;10.20;99.90;;;;;;5007808;28;20221;-65
2022/03/29 05:32:19;;;;;;;1.40;1.40;;;10.20;99.90;;;;;;5008131;28;20236;-64
2022/03/29 05:34:46;;;;;;;1.75;1.65;;;10.30;99.90;;;;;;5009685;28;20241;-65
2022/03/29 05:37:14;;;;;;;1.60;1.50;;;10.50;99.90;;;;;;5011791;28;20285;-64
2022/03/29 05:39:43;;;;;;;2.23;2.07;;;10.30;99.90;;;;;;5015503;28;20197;-64
2022/03/29 05:42:10;;;;;;;1.93;1.83;;;10.30;99.90;;;;;;5019034;28;20273;-65
2022/03/29 05:44:38;;;;;;;1.80;1.70;;;10.30;99.90;;;;;;5014948;28;20215;-63
2022/03/29 05:49:51;;;;;;;1.40;1.40;;;10.40;99.90;;;;;;5009357;28;20232;-65
2022/03/29 05:52:18;;;;;;;1.73;1.63;;;10.30;99.90;;;;;;5012998;28;20221;-66
2022/03/29 05:54:47;;;;;;;1.90;1.80;;;10.30;99.90;;;;;;5014157;28;20205;-65
2022/03/29 05:57:14;;;;;;;2.83;1.90;;;10.30;99.90;;;;;;5014489;28;20201;-64
2022/03/29 05:59:41;;;;;;;1.90;1.80;;;10.40;99.90;;;;;;5021095;28;20205;-65
2022/03/29 06:02:08;;;;;;;1.95;1.83;;;10.30;99.90;;;;;;5023973;28;20244;-65
2022/03/29 06:04:36;;;;;;;1.98;1.80;;;10.30;99.90;;;;;;5010642;28;20256;-64
2022/03/29 06:07:04;;;;;;;2.00;1.80;;;10.30;99.90;;;;;;5013590;28;20686;-66
2022/03/29 06:09:32;;;;;;;2.28;2.00;;;10.30;99.90;;;;;;5014561;28;20244;-67
2022/03/29 06:12:00;;;;;;;1.70;1.60;;;10.20;99.90;;;;;;5016471;28;20636;-64
2022/03/29 06:14:28;;;;;;;1.50;1.40;;;10.20;99.90;;;;;;5015151;28;20229;-64
2022/03/29 06:16:55;;;;;;;1.93;1.83;;;10.20;99.90;;;;;;5015120;28;20217;-64
2022/03/29 06:19:23;;;;;;;2.40;1.80;;;10.20;99.90;;;;;;5016149;28;20208;-65
2022/03/29 06:21:50;;;;;;;1.73;1.63;;;10.20;99.90;;;;;;5018971;28;20218;-65
2022/03/29 06:24:17;;;;;;;2.03;1.92;;;10.30;99.90;;;;;;5022413;28;20257;-65
2022/03/29 06:26:44;;;;;;;1.85;1.75;;;10.40;99.90;;;;;;5025630;28;20201;-64
2022/03/29 06:29:12;;;;;;;1.70;1.60;;;10.40;99.90;;;;;;5019800;28;20225;-66
2022/03/29 06:31:40;;;;;;;2.10;2.00;;;10.40;99.90;;;;;;5013467;28;20312;-65
2022/03/29 06:34:07;;;;;;;1.90;1.80;;;10.40;99.90;;;;;;5009730;28;20206;-64
2022/03/29 06:36:34;;;;;;;2.87;1.83;;;10.50;99.90;;;;;;5012408;28;20207;-64
2022/03/29 06:39:01;;;;;;;1.90;1.80;;;10.60;99.90;;;;;;5015031;28;20621;-65
2022/03/29 06:41:28;;;;;;;4.03;2.27;;;10.70;99.90;;;;;;5013091;28;20225;-65
2022/03/29 06:43:55;;;;;;;5.73;3.17;;;10.80;99.90;;;;;;5012321;28;20551;-66
2022/03/29 06:46:23;;;;;;;1.80;1.70;;;10.90;99.90;;;;;;5014372;28;20316;-65
2022/03/29 06:48:50;;;;;;;2.00;1.90;;;10.90;99.90;;;;;;5013531;28;20260;-66
2022/03/29 06:51:18;;;;;;;1.80;1.70;;;10.90;99.90;;;;;;5021175;28;20229;-64
2022/03/29 06:53:45;;;;;;;2.03;1.87;;;11.00;99.90;;;;;;5010659;28;20216;-63
2022/03/29 06:56:15;;;;;;;1.97;1.87;;;11.00;99.90;;;;;;5013770;28;20233;-66
2022/03/29 06:58:42;;;;;;;1.92;1.83;;;11.10;99.90;;;;;;5014512;28;20205;-66
2022/03/29 07:01:09;;;;;;;1.90;1.80;;;11.10;99.90;;;;;;5012409;28;20707;-65
2022/03/29 07:03:37;;;;;;;1.98;1.88;;;11.10;99.90;;;;;;5013253;28;20300;-64
2022/03/29 07:06:05;;;;;;;2.00;1.90;;;11.20;99.90;;;;;;5013014;28;20189;-67
2022/03/29 07:08:32;;;;;;;1.90;1.80;;;11.20;99.90;;;;;;5013141;28;20225;-65
2022/03/29 07:11:17;;;;;;;1.70;1.60;;;11.30;99.90;;;;;;5013887;28;20657;-65
2022/03/29 07:13:45;;;;;;;2.10;2.00;;;11.40;99.90;;;;;;5001679;28;20208;-66
2022/03/29 07:16:14;;;;;;;2.20;2.10;;;11.40;99.90;;;;;;5033989;28;20273;-63
2022/03/29 07:18:43;;;;;;;1.90;1.80;;;11.50;99.90;;;;;;5034052;28;20633;-64
2022/03/29 07:21:10;;;;;;;2.88;1.83;;;11.60;99.90;;;;;;5031100;28;20355;-64
2022/03/29 07:23:38;;;;;;;1.90;1.80;;;11.70;99.90;;;;;;5012330;28;20220;-64
2022/03/29 07:26:06;;;;;;;1.90;1.80;;;11.70;99.90;;;;;;5014946;28;20252;-65
2022/03/29 07:28:33;;;;;;;1.80;1.70;;;11.80;99.90;;;;;;5024589;28;20296;-64
2022/03/29 07:31:00;;;;;;;1.80;1.70;;;11.90;99.90;;;;;;5023184;28;20236;-64
2022/03/29 07:33:27;;;;;;;1.70;1.60;;;11.90;99.90;;;;;;5015948;28;20209;-66
2022/03/29 07:35:55;;;;;;;1.83;1.60;;;11.90;99.90;;;;;;5014446;28;20216;-64
2022/03/29 07:38:22;;;;;;;1.50;1.40;;;12.00;99.90;;;;;;5015496;28;20206;-64
2022/03/29 07:40:49;;;;;;;1.80;1.70;;;12.10;99.90;;;;;;5014970;28;20336;-65
2022/03/29 07:43:16;;;;;;;1.70;1.60;;;12.10;99.90;;;;;;5016181;28;20240;-64
2022/03/29 07:45:43;;;;;;;2.22;1.80;;;12.10;99.90;;;;;;5013748;28;20233;-67
2022/03/29 07:48:10;;;;;;;1.77;1.67;;;12.10;99.90;;;;;;5016245;28;20351;-65
2022/03/29 07:50:37;;;;;;;1.73;1.60;;;12.10;99.90;;;;;;5016610;28;20328;-67
2022/03/29 07:53:06;;;;;;;1.80;1.70;;;12.10;99.90;;;;;;5015903;28;20237;-64
2022/03/29 07:55:34;;;;;;;1.60;1.50;;;12.20;99.90;;;;;;5013574;28;20206;-64
2022/03/29 07:58:01;;;;;;;1.83;1.73;;;12.20;99.90;;;;;;5014314;28;20209;-64
2022/03/29 08:00:35;;;;;;;1.75;1.65;;;12.20;99.90;;;;;;5011192;28;20221;-65
2022/03/29 08:03:04;;;;;;;1.80;1.70;;;12.30;99.90;;;;;;5013507;28;20209;-66
2022/03/29 08:05:32;;;;;;;2.55;1.75;;;12.30;99.90;;;;;;5013400;28;20205;-66
2022/03/29 08:07:59;;;;;;;2.25;2.05;;;12.40;99.90;;;;;;5013132;28;20240;-66
2022/03/29 08:10:29;;;;;;;1.77;1.67;;;12.50;99.90;;;;;;5012179;28;20697;-64
2022/03/29 08:12:56;;;;;;;1.75;1.65;;;12.50;99.90;;;;;;5032220;28;20270;-67
2022/03/29 08:15:24;;;;;;;1.70;1.60;;;12.70;99.90;;;;;;5034948;28;20254;-65
2022/03/29 08:17:53;;;;;;;1.87;1.77;;;12.70;99.90;;;;;;5021444;28;20202;-67
2022/03/29 08:20:20;;;;;;;1.85;1.75;;;12.80;99.90;;;;;;5030230;28;20221;-66
2022/03/29 08:22:47;;;;;;;1.73;1.63;;;13.00;99.90;;;;;;5016609;28;20213;-67
2022/03/29 08:25:16;;;;;;;1.70;1.60;;;13.10;99.90;;;;;;5012634;28;20232;-66
2022/03/29 08:27:46;;;;;;;1.48;1.48;;;13.20;99.90;;;;;;5016842;28;20213;-63
2022/03/29 08:30:13;;;;;;;1.80;1.70;;;13.30;99.90;;;;;;5015136;28;20257;-65
2022/03/29 08:32:41;;;;;;;1.80;1.70;;;13.40;99.90;;;;;;5012986;28;20691;-66
2022/03/29 08:35:10;;;;;;;1.63;1.52;;;13.50;99.90;;;;;;5015650;28;20219;-64
2022/03/29 08:37:37;;;;;;;1.70;1.60;;;13.60;99.90;;;;;;5015079;28;20205;-67
2022/03/29 08:40:05;;;;;;;1.83;1.73;;;13.70;99.90;;;;;;5018434;28;20221;-64
2022/03/29 08:42:33;;;;;;;1.70;1.60;;;13.90;99.90;;;;;;5012258;28;20201;-64
2022/03/29 08:45:06;;;;;;;1.90;1.80;;;14.10;99.90;;;;;;5011898;28;20313;-64
2022/03/29 08:47:33;;;;;;;1.60;1.50;;;14.20;99.90;;;;;;5025969;28;20203;-66
2022/03/29 08:50:02;;;;;;;1.57;1.50;;;14.40;99.90;;;;;;5036047;28;20224;-66
2022/03/29 08:52:29;;;;;;;1.37;1.37;;;14.60;99.90;;;;;;5035909;28;20204;-66
2022/03/29 08:54:56;;;;;;;1.40;1.40;;;14.90;99.90;;;;;;5031241;28;20282;-67
2022/03/29 08:57:23;;;;;;;1.70;1.60;;;15.20;99.90;;;;;;5027612;28;20720;-68
2022/03/29 08:59:50;;;;;;;1.58;1.58;;;15.50;99.90;;;;;;5024356;28;20279;-66
2022/03/29 09:02:19;;;;;;;1.63;1.52;;;15.70;99.90;;;;;;5011236;28;20209;-65
2022/03/29 09:05:07;;;;;;;1.88;1.70;;;15.90;99.90;;;;;;5011271;28;20588;-68
2022/03/29 09:07:48;;;;;;;1.80;1.70;;;16.10;99.90;;;;;;5010224;28;20215;-68
2022/03/29 09:10:15;;;;;;;1.70;1.60;;;16.30;99.90;;;;;;5011714;28;20233;-64
2022/03/29 09:12:42;;;;;;;2.15;1.95;;;16.50;99.90;;;;;;5015250;28;20296;-66
2022/03/29 09:15:10;;;;;;;1.90;1.80;;;16.70;99.90;;;;;;5015777;28;20221;-65
2022/03/29 09:17:40;;;;;;;2.00;1.90;;;16.90;99.90;;;;;;5016724;28;20213;-66
2022/03/29 09:20:09;;;;;;;1.77;1.67;;;17.20;99.90;;;;;;5015856;28;20694;-66
2022/03/29 09:22:43;;;;;;;1.80;1.70;;;17.50;99.90;;;;;;5015809;28;20232;-66
2022/03/29 09:25:13;;;;;;;2.00;1.80;;;17.70;99.90;;;;;;5014339;28;20600;-65
2022/03/29 09:28:05;;;;;;;1.80;1.70;;;17.70;99.90;;;;;;5015565;28;20288;-65
2022/03/29 09:30:38;;;;;;;1.60;1.50;;;17.90;99.90;;;;;;5000762;28;20228;-67
2022/03/29 09:33:08;;;;;;;1.60;1.50;;;17.80;99.90;;;;;;5014513;28;20202;-66
2022/03/29 09:35:51;;;;;;;1.70;1.60;;;18.00;99.90;;;;;;5016119;28;20268;-65
2022/03/29 09:38:24;;;;;;;1.70;1.60;;;18.10;99.90;;;;;;5016371;28;20185;-66
2022/03/29 09:40:51;;;;;;;1.80;1.70;;;18.20;99.90;;;;;;5016997;28;20320;-65
2022/03/29 09:43:23;;;;;;;2.40;2.30;;;18.30;99.00;;;;;;5018194;28;20209;-66
2022/03/29 09:45:51;;;;;;;1.80;1.70;;;18.30;97.80;;;;;;5018257;28;20193;-66
2022/03/29 09:48:32;;;;;;;1.88;1.77;;;18.50;98.60;;;;;;5016909;28;20209;-67
2022/03/29 09:51:16;;;;;;;1.80;1.70;;;18.70;97.80;;;;;;5017574;28;20241;-68
2022/03/29 09:53:45;;;;;;;1.98;1.88;;;18.90;96.60;;;;;;5013412;28;20209;-68
2022/03/29 09:56:14;;;;;;;1.90;1.80;;;19.00;95.80;;;;;;5015422;28;20209;-65
2022/03/29 09:58:41;;;;;;;1.60;1.50;;;19.10;95.10;;;;;;5016339;28;20213;-67
2022/03/29 10:01:23;;;;;;;1.80;1.70;;;19.10;94.20;;;;;;5017081;28;20313;-66
2022/03/29 10:03:53;;;;;;;2.20;1.85;;;19.20;92.40;;;;;;5015318;28;20213;-66
2022/03/29 10:06:23;;;;;;;2.10;2.00;;;19.20;91.10;;;;;;5016663;28;20201;-68
2022/03/29 10:11:36;;;;;;;1.80;1.70;;;19.40;90.20;;;;;;5023369;28;20352;-68
2022/03/29 10:14:03;;;;;;;1.90;1.80;;;19.50;90.00;;;;;;5047266;28;20211;-67
2022/03/29 10:16:31;;;;;;;2.63;1.95;;;19.50;89.30;;;;;;5036871;28;20303;-66
2022/03/29 10:19:00;;;;;;;2.55;1.90;;;19.50;88.50;;;;;;5015878;28;20276;-68
2022/03/29 10:21:28;;;;;;;1.95;1.85;;;19.60;87.30;;;;;;5034894;28;20315;-68
2022/03/29 10:23:56;;;;;;;1.88;1.70;;;19.60;85.60;;;;;;5016139;28;20211;-66
2022/03/29 10:26:26;;;;;;;1.98;1.88;;;19.70;85.70;;;;;;5012153;28;20207;-66
2022/03/29 10:28:53;;;;;;;2.30;2.10;;;19.80;87.60;;;;;;5014943;28;20205;-65
2022/03/29 10:31:36;;;;;;;1.92;1.83;;;19.90;87.50;;;;;;5024700;28;20236;-67
2022/03/29 10:34:21;;;;;;;2.10;2.00;;;20.00;82.50;;;;;;5014022;28;20213;-64
2022/03/29 10:37:13;;;;;;;3.17;1.90;;;19.90;82.70;;;;;;5011807;28;20215;-65
2022/03/29 10:40:00;;;;;;;1.70;1.60;;;19.90;83.70;;;;;;4998243;28;20675;-67
2022/03/29 10:42:40;;;;;;;2.00;1.90;;;20.10;86.30;;;;;;5015075;28;20205;-68
2022/03/29 10:45:21;;;;;;;1.95;1.80;;;20.20;86.30;;;;;;5010833;28;20209;-68
2022/03/29 10:48:04;;;;;;;1.73;1.63;;;20.40;85.50;;;;;;5011488;28;20292;-67
2022/03/29 10:50:57;;;;;;;1.95;1.85;;;20.60;87.00;;;;;;5015340;28;20710;-66
2022/03/29 10:53:25;;;;;;;2.17;2.00;;;20.70;82.50;;;;;;5015071;28;20754;-68
2022/03/29 10:56:15;;;;;;;1.98;1.88;;;20.60;83.60;;;;;;5015339;28;20205;-66
2022/03/29 10:59:15;;;;;;;2.25;2.10;;;20.50;82.80;;;;;;5014910;28;20606;-66
2022/03/29 11:01:42;;;;;;;2.15;2.05;;;20.60;84.70;;;;;;5007438;28;20312;-67
2022/03/29 11:04:20;;;;;;;2.05;1.95;;;20.60;83.30;;;;;;5013866;28;20205;-67
2022/03/29 11:07:14;;;;;;;2.08;1.98;;;20.60;83.90;;;;;;5015200;28;20228;-69
2022/03/29 11:09:44;;;;;;;2.08;1.98;;;20.80;84.90;;;;;;5016220;28;20209;-70
2022/03/29 11:12:44;;;;;;;2.00;1.90;;;21.00;84.40;;;;;;5026678;28;20212;-65
2022/03/29 11:15:47;;;;;;;2.00;1.90;;;21.20;82.30;;;;;;5036961;28;20214;-66
2022/03/29 11:18:41;;;;;;;1.80;1.70;;;21.30;81.60;;;;;;5037876;28;20532;-68
2022/03/29 11:21:08;;;;;;;1.90;1.80;;;21.30;81.40;;;;;;5023723;28;20224;-67
2022/03/29 11:23:38;;;;;;;2.00;1.90;;;21.40;83.00;;;;;;5012573;28;20743;-66
2022/03/29 11:26:08;;;;;;;1.98;1.88;;;21.40;83.00;;;;;;5015449;28;20209;-67
2022/03/29 11:28:35;;;;;;;2.30;2.10;;;21.50;82.00;;;;;;5029021;28;20211;-67
2022/03/29 11:31:02;;;;;;;1.85;1.70;;;21.50;81.80;;;;;;5020333;28;20233;-66
2022/03/29 11:33:33;;;;;;;2.03;1.92;;;21.50;81.90;;;;;;5043963;28;20208;-67
2022/03/29 11:36:02;;;;;;;2.40;2.20;;;21.60;82.10;;;;;;5049838;28;20280;-68
2022/03/29 11:38:33;;;;;;;2.17;2.08;;;21.50;81.10;;;;;;5034449;28;20206;-69
2022/03/29 11:41:02;;;;;;;2.47;2.28;;;21.50;82.00;;;;;;5027305;28;20225;-66
2022/03/29 11:43:29;;;;;;;2.25;2.03;;;21.30;79.80;;;;;;5014621;28;20220;-67
2022/03/29 11:45:57;;;;;;;2.20;2.10;;;21.10;80.00;;;;;;5014447;28;20712;-69
2022/03/29 11:48:27;;;;;;;1.98;1.80;;;21.20;81.70;;;;;;5014435;28;20297;-67
2022/03/29 11:50:56;;;;;;;2.47;2.00;;;21.40;83.10;;;;;;5025366;28;20323;-67
2022/03/29 11:53:24;;;;;;;2.33;2.20;;;21.50;81.90;;;;;;5019256;28;20216;-69
2022/03/29 11:55:59;;;;;;;2.30;2.10;;;21.60;81.60;;;;;;5013655;28;20209;-67
2022/03/29 11:58:30;;;;;;;2.00;1.90;;;21.70;80.60;;;;;;5011378;28;20243;-67
2022/03/29 12:01:02;;;;;;;2.13;2.00;;;21.70;81.40;;;;;;5018237;28;20252;-67
2022/03/29 12:03:34;;;;;;;1.92;1.83;;;21.90;81.80;;;;;;5014598;28;20244;-66
2022/03/29 12:06:11;;;;;;;1.88;1.77;;;21.90;79.10;;;;;;5012620;28;20672;-65
2022/03/29 12:08:51;;;;;;;2.70;2.20;;;22.00;78.50;;;;;;5013538;28;20204;-68
2022/03/29 12:11:19;;;;;;;2.50;2.38;;;21.80;76.90;;;;;;5013664;28;20606;-65
2022/03/29 12:13:59;;;;;;;2.42;2.22;;;21.70;76.70;;;;;;5015124;28;20267;-66
2022/03/29 12:16:27;;;;;;;2.25;2.10;;;21.70;77.50;;;;;;5013510;28;20205;-66
2022/03/29 12:18:55;;;;;;;2.42;2.22;;;21.60;76.70;;;;;;5014448;28;20627;-65
2022/03/29 12:21:23;;;;;;;2.15;2.05;;;21.60;76.80;;;;;;5017278;28;20225;-67
2022/03/29 12:23:59;;;;;;;1.90;1.80;;;21.70;77.70;;;;;;5015955;28;20385;-66
2022/03/29 12:26:27;;;;;;;2.22;2.05;;;21.80;77.10;;;;;;5019530;28;20197;-66
2022/03/29 12:28:55;;;;;;;4.35;2.20;;;21.90;79.20;;;;;;5016839;28;20233;-68
2022/03/29 12:31:24;;;;;;;2.17;1.80;;;22.00;77.20;;;;;;5015154;28;20304;-65
2022/03/29 12:33:52;;;;;;;2.00;1.90;;;22.00;76.90;;;;;;5011020;28;20292;-66
2022/03/29 12:36:19;;;;;;;3.05;2.30;;;22.00;77.50;;;;;;5008906;28;20239;-68
2022/03/29 12:38:49;;;;;;;2.47;2.28;;;22.10;76.50;;;;;;5011796;28;20225;-65
2022/03/29 12:41:31;;;;;;;2.40;2.20;;;22.00;77.60;;;;;;5013359;28;20253;-67
2022/03/29 12:44:00;;;;;;;2.40;2.20;;;22.00;77.00;;;;;;5036921;23;20228;-67
2022/03/29 12:46:30;;;;;;;3.40;2.47;;;21.90;76.90;;;;;;5022173;28;20288;-65
2022/03/29 12:49:01;;;;;;;3.03;2.72;;;21.90;76.70;;;;;;5016093;28;20644;-66
2022/03/29 12:51:31;;;;;;;2.70;2.22;;;21.80;75.50;;;;;;5020847;28;20630;-66
2022/03/29 12:53:59;;;;;;;2.63;2.38;;;21.90;76.70;;;;;;5018712;28;20352;-66
2022/03/29 12:56:31;;;;;;;3.13;2.47;;;21.80;74.30;;;;;;5018709;28;20224;-66
2022/03/29 12:59:00;;;;;;;2.50;2.30;;;21.70;75.30;;;;;;5018369;28;20291;-66
2022/03/29 13:01:29;;;;;;;2.60;2.40;;;21.80;75.40;;;;;;5016541;28;20249;-67
2022/03/29 13:04:07;;;;;;;2.60;2.40;;;21.90;75.50;;;;;;5018930;28;20245;-65
2022/03/29 13:06:41;;;;;;;2.30;2.10;;;21.80;74.30;;;;;;5017593;28;20590;-66